Time;durP1;ratioP1;P1;durP2;ratioP2;P2;SDS_P1;SDS_P2;PMS_P1;PMS_P2;Temp;Humidity;BMP_temperature;BMP_pressure;BME280_temperature;BME280_humidity;BME280_pressure;Samples;Min_cycle;Max_cycle;Signal;HPM_P1;HPM_P2
2021/09/07 00:01:13;;;;;;;7.77;5.83;;;;;;;16.28;75.03;101681.16;5025749;28;20207;-73
2021/09/07 00:03:40;;;;;;;8.67;6.30;;;;;;;16.29;74.89;101684.72;5019846;28;20202;-73
2021/09/07 00:06:06;;;;;;;7.73;6.50;;;;;;;16.26;75.01;101675.03;5025525;28;20688;-73
2021/09/07 00:08:33;;;;;;;11.27;6.90;;;;;;;16.24;74.67;101676.09;5025793;28;20231;-73
2021/09/07 00:10:59;;;;;;;7.60;6.03;;;;;;;16.19;74.68;101668.38;5029778;28;20206;-73
2021/09/07 00:13:27;;;;;;;9.10;6.37;;;;;;;16.18;75.15;101676.53;5032084;28;20581;-72
2021/09/07 00:15:54;;;;;;;6.93;5.23;;;;;;;16.16;75.26;101671.25;5032589;28;20206;-72
2021/09/07 00:18:20;;;;;;;7.10;5.93;;;;;;;16.16;75.06;101676.63;5031575;28;20762;-72
2021/09/07 00:20:47;;;;;;;8.67;6.10;;;;;;;16.15;75.24;101669.53;5031236;28;20211;-73
2021/09/07 00:23:13;;;;;;;8.23;5.90;;;;;;;16.16;74.94;101673.09;5028749;28;20216;-72
2021/09/07 00:25:40;;;;;;;6.77;5.13;;;;;;;16.13;74.85;101671.47;5030179;28;20211;-72
2021/09/07 00:28:06;;;;;;;7.33;5.47;;;;;;;16.11;75.21;101665.38;5032251;28;20598;-73
2021/09/07 00:30:34;;;;;;;7.37;5.57;;;;;;;16.07;75.07;101663.00;5029711;28;20215;-73
2021/09/07 00:33:01;;;;;;;6.40;5.27;;;;;;;16.03;75.01;101665.03;5032599;28;20204;-72
2021/09/07 00:35:28;;;;;;;8.70;5.03;;;;;;;16.00;75.14;101669.75;5023078;28;20199;-73
2021/09/07 00:37:54;;;;;;;5.87;4.83;;;;;;;15.98;74.99;101676.09;5029692;28;20241;-72
2021/09/07 00:40:21;;;;;;;5.87;4.87;;;;;;;15.96;74.97;101669.09;5024358;28;20204;-73
2021/09/07 00:42:47;;;;;;;5.90;5.30;;;;;;;15.95;75.26;101670.06;5031859;28;20206;-72
2021/09/07 00:45:14;;;;;;;5.97;5.20;;;;;;;15.90;75.17;101665.03;5025649;28;20664;-72
2021/09/07 00:47:42;;;;;;;8.77;5.87;;;;;;;15.87;75.40;101673.31;5020660;28;20249;-72
2021/09/07 00:50:10;;;;;;;9.37;5.57;;;;;;;15.86;75.12;101659.97;5026769;28;20213;-72
2021/09/07 00:52:38;;;;;;;7.70;5.10;;;;;;;15.81;75.42;101662.97;5029404;28;20209;-73
2021/09/07 00:55:05;;;;;;;8.53;6.03;;;;;;;15.75;75.26;101660.75;5030727;28;20299;-73
2021/09/07 00:57:33;;;;;;;7.37;6.00;;;;;;;15.70;75.79;101660.19;5031645;28;20210;-73
2021/09/07 01:00:00;;;;;;;6.63;5.57;;;;;;;15.65;75.92;101665.00;5029356;28;20211;-73
2021/09/07 01:02:27;;;;;;;7.70;6.10;;;;;;;15.63;75.96;101661.56;5030769;28;20207;-73
2021/09/07 01:04:55;;;;;;;8.43;6.30;;;;;;;15.59;75.63;101649.28;5019641;28;20199;-73
2021/09/07 01:07:21;;;;;;;7.70;5.77;;;;;;;15.56;75.86;101650.41;5014402;28;20211;-73
2021/09/07 01:09:49;;;;;;;8.30;5.40;;;;;;;15.54;75.83;101643.38;5019062;28;20219;-73
2021/09/07 01:12:15;;;;;;;6.33;5.47;;;;;;;15.51;75.79;101639.06;5022841;28;20214;-73
2021/09/07 01:14:42;;;;;;;7.80;5.90;;;;;;;15.50;75.98;101637.34;5019407;28;20206;-73
2021/09/07 01:17:14;;;;;;;7.17;5.67;;;;;;;15.47;75.91;101637.56;5023781;28;20225;-72
2021/09/07 01:19:43;;;;;;;7.20;4.90;;;;;;;15.43;75.52;101645.91;5024486;28;20206;-73
2021/09/07 01:22:11;;;;;;;7.23;5.53;;;;;;;15.34;75.20;101636.66;5033868;28;20206;-73
2021/09/07 01:24:39;;;;;;;7.23;4.73;;;;;;;15.26;74.85;101644.38;5030531;28;20211;-73
2021/09/07 01:27:06;;;;;;;8.23;4.90;;;;;;;15.17;74.46;101645.84;5030365;28;20224;-73
2021/09/07 01:29:34;;;;;;;6.40;5.17;;;;;;;15.09;74.32;101642.81;5025413;28;20226;-72
2021/09/07 01:32:01;;;;;;;5.87;5.07;;;;;;;15.02;74.83;101641.50;5024999;28;20266;-73
2021/09/07 01:34:28;;;;;;;7.63;4.97;;;;;;;14.96;74.99;101631.19;5024338;28;20199;-73
2021/09/07 01:36:55;;;;;;;5.33;4.83;;;;;;;14.94;74.85;101638.47;5026369;28;20652;-72
2021/09/07 01:39:22;;;;;;;6.40;4.90;;;;;;;14.92;74.97;101641.25;5019233;28;20308;-72
2021/09/07 01:41:51;;;;;;;7.23;5.30;;;;;;;14.89;74.90;101660.22;5026296;28;20203;-73
2021/09/07 01:44:18;;;;;;;6.90;5.10;;;;;;;14.84;75.55;101658.81;5024020;28;20625;-73
2021/09/07 01:46:45;;;;;;;5.90;4.90;;;;;;;14.81;75.64;101659.00;5024482;28;20573;-75
2021/09/07 01:49:12;;;;;;;8.07;5.80;;;;;;;14.76;76.03;101653.94;5020696;28;20240;-74
2021/09/07 01:51:41;;;;;;;6.37;4.97;;;;;;;14.76;75.88;101645.03;5023537;28;20206;-74
2021/09/07 01:54:09;;;;;;;5.37;4.83;;;;;;;14.74;76.12;101645.13;5024220;28;20214;-72
2021/09/07 01:56:37;;;;;;;7.77;5.07;;;;;;;14.73;76.40;101647.91;5023662;28;20210;-75
2021/09/07 01:59:05;;;;;;;5.73;4.73;;;;;;;14.73;76.68;101653.28;5024554;28;20227;-74
2021/09/07 02:01:32;;;;;;;6.83;5.23;;;;;;;14.69;76.31;101654.44;5025010;28;20203;-75
2021/09/07 02:03:58;;;;;;;5.60;4.70;;;;;;;14.65;76.49;101644.88;5026133;28;20203;-74
2021/09/07 02:06:25;;;;;;;6.53;5.27;;;;;;;14.58;76.29;101655.97;5028166;28;20206;-74
2021/09/07 02:08:52;;;;;;;7.50;5.97;;;;;;;14.55;76.90;101664.22;5024387;28;20249;-74
2021/09/07 02:11:19;;;;;;;6.63;5.33;;;;;;;14.53;76.65;101666.13;5025992;28;20683;-75
2021/09/07 02:13:45;;;;;;;10.93;6.80;;;;;;;14.51;76.99;101675.25;5017292;28;20198;-75
2021/09/07 02:16:13;;;;;;;8.73;6.47;;;;;;;14.50;76.90;101671.72;5013655;28;20217;-73
2021/09/07 02:18:41;;;;;;;6.10;5.30;;;;;;;14.46;77.33;101662.13;5017208;28;20649;-75
2021/09/07 02:21:08;;;;;;;7.07;5.70;;;;;;;14.44;77.19;101660.50;5014542;28;20214;-75
2021/09/07 02:23:35;;;;;;;6.93;6.00;;;;;;;14.41;77.23;101658.88;5013691;28;20203;-74
2021/09/07 02:26:02;;;;;;;10.17;6.57;;;;;;;14.39;77.61;101647.34;5029614;28;20228;-75
2021/09/07 02:28:30;;;;;;;8.30;6.67;;;;;;;14.36;77.42;101652.03;5024331;28;20324;-75
2021/09/07 02:30:57;;;;;;;8.57;6.10;;;;;;;14.31;77.66;101652.34;5016753;28;20265;-75
2021/09/07 02:33:26;;;;;;;8.77;6.13;;;;;;;14.28;77.22;101649.88;5012690;28;20246;-75
2021/09/07 02:35:54;;;;;;;8.63;6.60;;;;;;;14.24;77.50;101642.97;5025524;28;20293;-76
2021/09/07 02:38:21;;;;;;;8.30;6.30;;;;;;;14.21;77.95;101648.53;5029236;28;20250;-75
2021/09/07 02:40:48;;;;;;;9.17;7.17;;;;;;;14.21;78.51;101649.38;5025388;28;20221;-75
2021/09/07 02:43:16;;;;;;;8.77;6.93;;;;;;;14.22;78.28;101640.38;5028371;28;20235;-75
2021/09/07 02:45:43;;;;;;;8.23;6.43;;;;;;;14.23;78.31;101636.75;5026615;28;20296;-75
2021/09/07 02:48:11;;;;;;;7.53;5.37;;;;;;;14.23;78.11;101641.25;5023278;28;20234;-76
2021/09/07 02:50:39;;;;;;;8.77;6.83;;;;;;;14.21;78.02;101638.66;5018410;28;20826;-75
2021/09/07 02:53:08;;;;;;;7.50;6.13;;;;;;;14.18;78.11;101644.22;5024511;28;20257;-73
2021/09/07 02:55:36;;;;;;;9.30;6.63;;;;;;;14.14;78.31;101648.06;5013324;28;20229;-73
2021/09/07 02:58:04;;;;;;;8.27;6.67;;;;;;;14.12;78.56;101639.25;5009536;28;20222;-73
2021/09/07 03:00:31;;;;;;;8.13;6.60;;;;;;;14.14;78.92;101647.19;5010946;28;20692;-73
2021/09/07 03:02:59;;;;;;;8.97;7.10;;;;;;;14.15;78.64;101648.91;5017819;28;20210;-73
2021/09/07 03:05:26;;;;;;;9.27;7.37;;;;;;;14.16;78.80;101653.28;5022947;28;20688;-73
2021/09/07 03:07:55;;;;;;;8.87;6.37;;;;;;;14.17;79.14;101646.97;5019869;28;20238;-73
2021/09/07 03:10:23;;;;;;;9.23;7.10;;;;;;;14.18;79.00;101644.22;5017370;28;20778;-73
2021/09/07 03:12:50;;;;;;;9.43;7.57;;;;;;;14.19;79.50;101645.94;5019271;28;20198;-73
2021/09/07 03:15:18;;;;;;;9.67;7.43;;;;;;;14.20;79.32;101646.78;5020489;28;20213;-73
2021/09/07 03:17:45;;;;;;;10.27;6.83;;;;;;;14.19;79.34;101650.44;5018042;28;20313;-73
2021/09/07 03:20:13;;;;;;;10.27;7.03;;;;;;;14.18;79.46;101644.22;5021927;28;20217;-73
2021/09/07 03:22:40;;;;;;;9.10;6.90;;;;;;;14.15;79.22;101640.88;5016761;28;20268;-73
2021/09/07 03:25:10;;;;;;;8.23;6.70;;;;;;;14.11;79.76;101634.84;5019539;28;20614;-73
2021/09/07 03:27:37;;;;;;;9.30;7.03;;;;;;;14.12;79.69;101641.94;5017825;28;20233;-73
2021/09/07 03:30:06;;;;;;;8.23;7.37;;;;;;;14.11;79.69;101642.88;5018712;28;20252;-73
2021/09/07 03:32:33;;;;;;;15.93;7.83;;;;;;;14.11;79.45;101647.38;5026157;28;20214;-73
2021/09/07 03:35:00;;;;;;;9.60;7.33;;;;;;;14.09;79.49;101643.94;5023252;28;20215;-73
2021/09/07 03:37:27;;;;;;;10.40;8.17;;;;;;;14.08;79.91;101642.22;5019272;28;20233;-74
2021/09/07 03:39:55;;;;;;;9.03;6.70;;;;;;;14.07;79.85;101640.50;5018432;28;20293;-73
2021/09/07 03:42:24;;;;;;;9.97;7.13;;;;;;;14.06;80.12;101641.44;5022479;28;20206;-73
2021/09/07 03:44:51;;;;;;;9.73;7.40;;;;;;;14.03;79.97;101639.81;5016451;28;20298;-73
2021/09/07 03:47:19;;;;;;;9.40;8.03;;;;;;;14.01;80.45;101638.19;5019025;28;20334;-73
2021/09/07 03:49:46;;;;;;;8.53;6.97;;;;;;;14.02;80.32;101642.59;5028282;28;20228;-73
2021/09/07 03:52:14;;;;;;;10.17;7.57;;;;;;;14.04;80.31;101640.66;5018622;28;20242;-73
2021/09/07 03:54:41;;;;;;;9.13;7.33;;;;;;;14.04;80.27;101646.03;5025771;28;20241;-73
2021/09/07 03:57:09;;;;;;;10.30;7.30;;;;;;;14.05;80.15;101645.06;5017427;28;20571;-73
2021/09/07 03:59:38;;;;;;;8.67;6.93;;;;;;;14.06;80.23;101649.47;5023762;28;20639;-73
2021/09/07 04:02:06;;;;;;;9.57;7.03;;;;;;;14.06;80.04;101642.31;5025865;28;20206;-70
2021/09/07 04:04:34;;;;;;;9.67;6.87;;;;;;;14.08;80.01;101647.56;5031499;28;20206;-73
2021/09/07 04:07:02;;;;;;;11.70;6.87;;;;;;;14.04;80.50;101635.31;5033561;28;20521;-73
2021/09/07 04:09:29;;;;;;;8.67;6.03;;;;;;;14.03;80.44;101642.50;5027014;28;20230;-73
2021/09/07 04:11:56;;;;;;;9.87;6.93;;;;;;;14.02;79.92;101638.09;5034077;28;20212;-73
2021/09/07 04:14:24;;;;;;;9.40;6.37;;;;;;;13.99;79.65;101645.44;5026864;28;20571;-73
2021/09/07 04:16:53;;;;;;;8.43;6.37;;;;;;;13.92;79.95;101642.31;5021892;28;20557;-73
2021/09/07 04:19:20;;;;;;;9.23;6.47;;;;;;;13.88;79.71;101649.66;5019646;28;20257;-73
2021/09/07 04:21:48;;;;;;;7.33;6.50;;;;;;;13.86;80.22;101651.56;5028547;28;20675;-73
2021/09/07 04:24:15;;;;;;;8.53;6.60;;;;;;;13.82;80.36;101644.66;5021808;28;20588;-73
2021/09/07 04:26:45;;;;;;;8.80;6.57;;;;;;;13.78;80.25;101645.84;5021997;28;20660;-73
2021/09/07 04:29:13;;;;;;;7.97;5.83;;;;;;;13.76;80.47;101653.09;5016711;28;20244;-73
2021/09/07 04:31:42;;;;;;;8.33;5.97;;;;;;;13.75;80.49;101648.69;5018455;28;20672;-73
2021/09/07 04:34:10;;;;;;;8.53;5.83;;;;;;;13.75;80.82;101646.00;5021419;28;20585;-74
2021/09/07 04:36:38;;;;;;;7.00;5.43;;;;;;;13.76;80.67;101650.41;5026262;28;20289;-73
2021/09/07 04:39:05;;;;;;;6.73;5.37;;;;;;;13.75;80.87;101651.38;5014737;28;20681;-73
2021/09/07 04:41:33;;;;;;;7.60;5.70;;;;;;;13.77;80.85;101654.81;5020445;28;20676;-73
2021/09/07 04:44:00;;;;;;;7.80;6.30;;;;;;;13.77;80.55;101664.66;5020550;28;20202;-73
2021/09/07 04:46:27;;;;;;;7.07;6.23;;;;;;;13.75;80.71;101655.84;5016381;28;20211;-73
2021/09/07 04:48:55;;;;;;;8.30;6.53;;;;;;;13.76;80.57;101663.81;5026730;28;20706;-73
2021/09/07 04:51:24;;;;;;;8.17;6.43;;;;;;;13.76;80.76;101658.44;5021136;28;20761;-73
2021/09/07 04:53:52;;;;;;;8.97;6.17;;;;;;;13.77;80.82;101662.00;5020657;28;20746;-73
2021/09/07 04:56:19;;;;;;;9.00;6.60;;;;;;;13.78;80.98;101669.06;5023054;28;20206;-73
2021/09/07 04:58:47;;;;;;;16.30;7.27;;;;;;;13.78;80.99;101675.28;5026052;28;20239;-73
2021/09/07 05:01:14;;;;;;;9.93;6.17;;;;;;;13.78;81.12;101669.94;5023504;28;20214;-73
2021/09/07 05:03:41;;;;;;;7.03;5.83;;;;;;;13.76;80.85;101669.16;5026081;28;20202;-73
2021/09/07 05:06:08;;;;;;;8.37;6.33;;;;;;;13.75;80.64;101678.13;5018945;28;20694;-73
2021/09/07 05:08:37;;;;;;;8.50;6.13;;;;;;;13.73;80.78;101680.03;5030422;28;20232;-73
2021/09/07 05:11:04;;;;;;;9.60;6.30;;;;;;;13.72;80.69;101689.03;5025251;28;20222;-73
2021/09/07 05:13:32;;;;;;;8.33;6.60;;;;;;;13.72;81.08;101682.81;5027402;28;20208;-74
2021/09/07 05:15:59;;;;;;;8.37;7.27;;;;;;;13.71;81.33;101681.09;5027761;28;20688;-75
2021/09/07 05:18:26;;;;;;;13.17;6.97;;;;;;;13.72;81.02;101682.81;5021191;28;20234;-75
2021/09/07 05:20:53;;;;;;;14.03;7.20;;;;;;;13.71;81.29;101692.66;5022515;28;20218;-74
2021/09/07 05:23:20;;;;;;;10.13;7.43;;;;;;;13.72;81.04;101681.00;5017287;28;20217;-74
2021/09/07 05:25:49;;;;;;;9.87;7.00;;;;;;;13.72;80.88;101678.31;5016015;28;20203;-74
2021/09/07 05:28:16;;;;;;;10.17;6.10;;;;;;;13.69;80.83;101683.00;5015216;28;20226;-75
2021/09/07 05:30:43;;;;;;;10.00;6.60;;;;;;;13.62;80.84;101687.84;5016056;28;20262;-74
2021/09/07 05:33:10;;;;;;;12.07;6.60;;;;;;;13.61;81.46;101690.63;5020082;28;20254;-74
2021/09/07 05:35:37;;;;;;;6.93;6.23;;;;;;;13.58;81.03;101697.03;5022642;28;20209;-75
2021/09/07 05:38:05;;;;;;;8.33;6.43;;;;;;;13.56;81.49;101698.94;5015568;28;20716;-74
2021/09/07 05:40:32;;;;;;;11.63;6.60;;;;;;;13.53;81.45;101701.78;5015367;28;20199;-74
2021/09/07 05:43:01;;;;;;;9.47;6.23;;;;;;;13.53;81.60;101699.09;5015910;28;20225;-74
2021/09/07 05:45:28;;;;;;;8.73;6.67;;;;;;;13.55;81.98;101708.78;5011972;28;20205;-75
2021/09/07 05:47:55;;;;;;;9.50;6.90;;;;;;;13.58;82.16;101702.38;5013582;28;20222;-74
2021/09/07 05:50:22;;;;;;;9.47;6.77;;;;;;;13.62;81.68;101711.06;5014702;28;20230;-75
2021/09/07 05:52:50;;;;;;;9.67;6.63;;;;;;;13.65;81.85;101711.75;5016628;28;20272;-74
2021/09/07 05:55:17;;;;;;;9.93;7.03;;;;;;;13.70;82.11;101717.69;5024953;28;20206;-74
2021/09/07 05:57:45;;;;;;;10.23;6.60;;;;;;;13.73;82.46;101712.16;5019526;28;20226;-74
2021/09/07 06:00:15;;;;;;;8.07;6.63;;;;;;;13.78;82.21;101714.59;5019027;28;20211;-74
2021/09/07 06:02:42;;;;;;;8.30;6.83;;;;;;;13.83;82.38;101707.13;5022632;28;20214;-74
2021/09/07 06:05:10;;;;;;;10.37;6.80;;;;;;;13.87;82.39;101709.53;5015931;28;20202;-74
2021/09/07 06:07:38;;;;;;;8.83;6.60;;;;;;;13.92;82.26;101716.44;5014820;28;20231;-74
2021/09/07 06:10:06;;;;;;;9.73;7.13;;;;;;;13.97;82.44;101727.72;5021129;28;20295;-75
2021/09/07 06:12:33;;;;;;;9.30;6.93;;;;;;;14.02;82.87;101733.66;5019274;28;20203;-75
2021/09/07 06:15:00;;;;;;;8.60;7.27;;;;;;;14.09;82.53;101729.66;5017452;28;20208;-70
2021/09/07 06:17:29;;;;;;;8.07;7.13;;;;;;;14.19;83.02;101738.84;5018973;28;20289;-75
2021/09/07 06:19:56;;;;;;;9.57;6.87;;;;;;;14.28;83.01;101730.25;5014411;28;20207;-75
2021/09/07 06:22:23;;;;;;;12.23;7.53;;;;;;;14.38;82.47;101736.75;5019173;28;20580;-75
2021/09/07 06:24:52;;;;;;;11.50;7.10;;;;;;;14.49;82.48;101747.72;5020793;28;20703;-74
2021/09/07 06:27:19;;;;;;;9.67;7.07;;;;;;;14.62;82.24;101746.94;5021133;28;20288;-75
2021/09/07 06:29:46;;;;;;;10.77;7.87;;;;;;;14.75;81.71;101742.53;5018763;28;20230;-75
2021/09/07 06:32:16;;;;;;;10.13;7.13;;;;;;;14.86;81.47;101737.34;5020485;28;20265;-75
2021/09/07 06:34:44;;;;;;;8.03;6.63;;;;;;;15.00;81.07;101736.47;5017314;28;20210;-75
2021/09/07 06:37:11;;;;;;;9.10;6.53;;;;;;;15.11;80.99;101741.97;5013826;28;20210;-75
2021/09/07 06:39:39;;;;;;;9.63;6.60;;;;;;;15.21;80.72;101743.13;5015365;28;20661;-74
2021/09/07 06:42:06;;;;;;;9.20;6.80;;;;;;;15.31;79.84;101748.75;5024299;28;20660;-75
2021/09/07 06:44:34;;;;;;;8.50;6.60;;;;;;;15.41;79.34;101734.59;5013862;28;20210;-75
2021/09/07 06:47:01;;;;;;;10.57;6.80;;;;;;;15.55;79.12;101739.97;5013168;28;20203;-75
2021/09/07 06:49:29;;;;;;;10.63;6.47;;;;;;;15.67;78.65;101735.59;5016111;28;20234;-74
2021/09/07 06:51:57;;;;;;;9.00;7.23;;;;;;;15.81;77.76;101729.28;5013919;28;20235;-74
2021/09/07 06:54:24;;;;;;;12.03;8.30;;;;;;;15.90;76.82;101737.56;5018881;28;20209;-75
2021/09/07 06:56:52;;;;;;;9.93;7.60;;;;;;;16.00;76.26;101737.78;5020673;28;20572;-75
2021/09/07 06:59:19;;;;;;;9.50;7.13;;;;;;;16.12;75.67;101733.41;5019800;28;20308;-74
2021/09/07 07:01:46;;;;;;;10.80;7.30;;;;;;;16.24;75.17;101728.03;5022710;28;20292;-75
2021/09/07 07:04:13;;;;;;;10.37;7.83;;;;;;;16.39;74.35;101730.63;5020168;28;20206;-74
2021/09/07 07:06:41;;;;;;;15.43;9.40;;;;;;;16.51;73.73;101732.41;5017600;28;20213;-75
2021/09/07 07:09:09;;;;;;;11.73;9.67;;;;;;;16.63;72.99;101739.66;5015722;28;20260;-74
2021/09/07 07:11:36;;;;;;;13.07;9.43;;;;;;;16.75;72.41;101736.09;5011518;28;20224;-74
2021/09/07 07:14:04;;;;;;;11.97;8.87;;;;;;;16.89;72.24;101737.78;5014734;28;20208;-75
2021/09/07 07:16:31;;;;;;;13.83;10.20;;;;;;;17.04;71.67;101741.19;5020864;28;20225;-74
2021/09/07 07:18:58;;;;;;;16.37;10.63;;;;;;;17.16;70.94;101741.16;5013596;28;20240;-75
2021/09/07 07:21:28;;;;;;;16.27;11.17;;;;;;;17.26;70.43;101746.72;5020600;28;20257;-75
2021/09/07 07:23:56;;;;;;;15.33;11.83;;;;;;;17.40;70.14;101753.75;5020312;28;20263;-75
2021/09/07 07:26:24;;;;;;;13.47;11.50;;;;;;;17.55;69.60;101750.81;5022959;28;20214;-75
2021/09/07 07:28:51;;;;;;;13.40;10.50;;;;;;;17.70;69.15;101748.81;5024089;28;20231;-75
2021/09/07 07:31:18;;;;;;;12.60;10.40;;;;;;;17.82;68.55;101755.94;5021486;28;20226;-75
2021/09/07 07:33:46;;;;;;;15.80;10.57;;;;;;;17.91;67.99;101749.88;5018627;28;20208;-75
2021/09/07 07:36:13;;;;;;;13.00;9.23;;;;;;;18.06;67.77;101758.63;5022019;28;20349;-75
2021/09/07 07:38:40;;;;;;;13.40;11.17;;;;;;;18.19;67.29;101761.22;5016585;28;20219;-75
2021/09/07 07:41:07;;;;;;;13.30;10.40;;;;;;;18.34;66.79;101762.72;5021680;28;20223;-75
2021/09/07 07:43:44;;;;;;;12.27;10.27;;;;;;;18.45;66.00;101757.31;5018717;28;20209;-74
2021/09/07 07:46:11;;;;;;;15.83;11.03;;;;;;;18.55;65.59;101755.63;5015663;28;20208;-75
2021/09/07 07:48:40;;;;;;;14.23;10.47;;;;;;;18.65;65.08;101761.16;5019748;28;20266;-75
2021/09/07 07:51:08;;;;;;;15.20;11.70;;;;;;;18.73;64.97;101758.72;5017828;28;20320;-75
2021/09/07 07:53:35;;;;;;;15.97;11.40;;;;;;;18.82;64.99;101760.66;5016554;28;20211;-75
2021/09/07 07:56:03;;;;;;;15.03;11.70;;;;;;;18.94;64.45;101756.16;5014962;28;20214;-75
2021/09/07 07:58:30;;;;;;;13.43;11.57;;;;;;;19.05;64.02;101758.81;5010072;28;20320;-75
2021/09/07 08:00:59;;;;;;;17.00;12.40;;;;;;;19.15;63.84;101761.66;5012647;28;20219;-75
2021/09/07 08:03:26;;;;;;;16.63;12.23;;;;;;;19.22;63.54;101758.28;5019642;28;20282;-75
2021/09/07 08:05:53;;;;;;;15.77;11.93;;;;;;;19.32;63.28;101758.41;5020331;28;20291;-75
2021/09/07 08:08:20;;;;;;;16.90;13.07;;;;;;;19.43;62.85;101753.81;5019699;28;20225;-75
2021/09/07 08:10:48;;;;;;;15.70;12.00;;;;;;;19.58;62.56;101749.00;5019059;28;20330;-75
2021/09/07 08:13:16;;;;;;;15.20;12.57;;;;;;;19.71;62.51;101756.94;5015737;28;20288;-75
2021/09/07 08:15:43;;;;;;;16.10;12.10;;;;;;;19.85;62.07;101758.50;5020821;28;20295;-75
2021/09/07 08:18:11;;;;;;;17.27;13.07;;;;;;;20.01;61.61;101765.19;5017987;28;20304;-75
2021/09/07 08:20:38;;;;;;;14.47;12.53;;;;;;;20.11;60.76;101766.09;5012955;28;20204;-75
2021/09/07 08:23:04;;;;;;;18.07;13.50;;;;;;;20.22;60.98;101765.19;5013896;28;20449;-75
2021/09/07 08:25:31;;;;;;;15.57;13.00;;;;;;;20.30;60.19;101765.34;5019179;28;20217;-75
2021/09/07 08:27:58;;;;;;;16.33;12.97;;;;;;;20.39;60.10;101761.03;5014326;28;21032;-75
2021/09/07 08:30:24;;;;;;;17.63;13.47;;;;;;;20.46;59.96;101764.91;5016381;28;20683;-75
2021/09/07 08:32:51;;;;;;;17.83;13.63;;;;;;;20.61;59.75;101766.25;5016060;28;20225;-75
2021/09/07 08:35:19;;;;;;;19.70;13.30;;;;;;;20.71;59.32;101764.47;5020620;28;20679;-75
2021/09/07 08:37:45;;;;;;;18.17;14.07;;;;;;;20.82;58.79;101765.38;5014027;28;20223;-75
2021/09/07 08:40:12;;;;;;;16.00;13.15;;;;;;;20.91;58.47;101761.84;5014586;28;20213;-75
2021/09/07 08:42:39;;;;;;;18.05;13.57;;;;;;;20.97;58.31;101764.00;5017152;28;20194;-75
2021/09/07 08:45:09;;;;;;;19.85;12.90;;;;;;;21.05;58.41;101759.63;5020202;28;20305;-76
2021/09/07 08:47:35;;;;;;;18.05;12.70;;;;;;;21.19;57.79;101762.94;5019554;28;20748;-75
2021/09/07 08:50:02;;;;;;;14.43;12.15;;;;;;;21.25;57.13;101751.56;5016478;28;20692;-75
2021/09/07 08:52:31;;;;;;;16.95;13.15;;;;;;;21.26;56.68;101753.28;5023186;28;20198;-75
2021/09/07 08:54:57;;;;;;;15.80;12.13;;;;;;;21.27;56.42;101753.16;5016437;28;20213;-76
2021/09/07 08:57:24;;;;;;;17.20;12.20;;;;;;;21.28;56.34;101759.44;5021489;28;20205;-75
2021/09/07 08:59:59;;;;;;;16.63;12.32;;;;;;;21.30;56.26;101754.72;5022550;28;20217;-75
2021/09/07 09:02:27;;;;;;;15.57;11.73;;;;;;;21.34;56.09;101750.72;5017299;28;20684;-75
2021/09/07 09:04:55;;;;;;;15.35;11.68;;;;;;;21.39;55.71;101754.72;5019709;28;20233;-75
2021/09/07 09:07:23;;;;;;;14.90;11.80;;;;;;;21.47;55.57;101757.63;5015921;28;20242;-75
2021/09/07 09:09:52;;;;;;;13.25;10.95;;;;;;;21.62;55.59;101759.91;5015159;28;20206;-75
2021/09/07 09:12:29;;;;;;;13.27;10.35;;;;;;;21.72;54.74;101752.63;5018682;28;20599;-75
2021/09/07 09:14:56;;;;;;;14.20;10.45;;;;;;;21.76;53.32;101759.47;5012122;28;20206;-75
2021/09/07 09:17:25;;;;;;;15.35;9.98;;;;;;;21.83;52.75;101757.91;5015941;28;20598;-75
2021/09/07 09:19:54;;;;;;;13.75;11.18;;;;;;;21.94;52.51;101757.75;5024840;28;20572;-76
2021/09/07 09:22:21;;;;;;;13.13;10.98;;;;;;;22.05;52.32;101754.91;5027907;28;20198;-75
2021/09/07 09:24:48;;;;;;;15.52;12.02;;;;;;;22.16;51.68;101762.91;5020527;28;20234;-75
2021/09/07 09:27:16;;;;;;;16.00;11.98;;;;;;;22.23;51.58;101760.44;5017732;28;20302;-75
2021/09/07 09:29:43;;;;;;;14.60;11.80;;;;;;;22.27;51.54;101761.88;5014200;28;20203;-75
2021/09/07 09:32:10;;;;;;;14.55;11.85;;;;;;;22.37;51.44;101760.00;5019392;28;20272;-75
2021/09/07 09:34:39;;;;;;;13.23;10.70;;;;;;;22.48;51.13;101751.69;5018308;28;20207;-75
2021/09/07 09:37:07;;;;;;;15.85;10.95;;;;;;;22.62;51.24;101755.78;5022730;28;20205;-75
2021/09/07 09:39:39;;;;;;;12.65;11.25;;;;;;;22.78;50.36;101749.72;5023295;28;20228;-75
2021/09/07 09:42:07;;;;;;;14.48;11.73;;;;;;;22.88;49.79;101760.56;5024501;28;20315;-75
2021/09/07 09:44:35;;;;;;;11.95;10.65;;;;;;;22.95;49.85;101757.09;5017221;28;20202;-75
2021/09/07 09:47:03;;;;;;;11.70;10.50;;;;;;;23.02;49.75;101760.91;5019728;28;20214;-75
2021/09/07 09:49:30;;;;;;;14.65;11.20;;;;;;;23.09;49.19;101758.47;5021125;28;20634;-75
2021/09/07 09:52:04;;;;;;;11.80;10.02;;;;;;;23.14;48.81;101751.53;5023110;28;20252;-75
2021/09/07 09:54:32;;;;;;;13.15;9.90;;;;;;;23.15;47.84;101750.53;5022052;28;20206;-75
2021/09/07 09:56:59;;;;;;;12.52;10.18;;;;;;;23.13;47.58;101748.97;5016042;28;20210;-75
2021/09/07 09:59:28;;;;;;;12.27;8.57;;;;;;;23.12;47.08;101749.97;5021879;28;20219;-76
2021/09/07 10:01:56;;;;;;;12.77;7.80;;;;;;;23.15;46.74;101741.53;5023027;28;20209;-75
2021/09/07 10:04:24;;;;;;;11.93;8.77;;;;;;;23.19;46.62;101741.09;5025939;28;20255;-75
2021/09/07 10:06:52;;;;;;;10.68;8.45;;;;;;;23.24;46.33;101737.06;5018255;28;20289;-75
2021/09/07 10:09:19;;;;;;;11.60;7.05;;;;;;;23.29;46.30;101743.72;5022272;28;20707;-75
2021/09/07 10:11:50;;;;;;;11.55;8.05;;;;;;;23.34;45.72;101741.41;5018113;28;20230;-75
2021/09/07 10:14:19;;;;;;;10.68;7.78;;;;;;;23.39;45.65;101728.22;5022255;28;20209;-75
2021/09/07 10:16:52;;;;;;;8.45;6.82;;;;;;;23.45;45.37;101721.31;5024280;28;20296;-75
2021/09/07 10:19:47;;;;;;;8.98;6.85;;;;;;;23.51;45.35;101721.56;5024477;28;20333;-75
2021/09/07 10:25:49;;;;;;;9.20;5.70;;;;;;;23.64;42.93;101721.19;5020109;28;20579;-76
2021/09/07 10:28:30;;;;;;;7.72;5.43;;;;;;;23.65;42.25;101717.44;5023167;28;20237;-75
2021/09/07 10:30:58;;;;;;;7.97;4.97;;;;;;;23.72;41.81;101723.13;5025527;28;20349;-75
2021/09/07 10:33:29;;;;;;;7.80;5.47;;;;;;;23.78;41.10;101717.91;5017355;28;20207;-76
2021/09/07 10:36:09;;;;;;;10.38;6.35;;;;;;;23.80;40.67;101715.91;5020092;28;21732;-76
2021/09/07 10:38:37;;;;;;;9.48;7.63;;;;;;;23.84;41.06;101716.41;5019484;28;20746;-75
2021/09/07 10:41:04;;;;;;;11.05;7.18;;;;;;;23.93;40.78;101714.63;5013696;28;20215;-75
2021/09/07 10:44:04;;;;;;;6.30;5.63;;;;;;;24.07;40.32;101706.75;5017072;28;20233;-76
2021/09/07 10:46:48;;;;;;;8.35;6.13;;;;;;;24.18;40.44;101713.81;4980334;28;20234;-75
2021/09/07 10:49:24;;;;;;;7.65;6.20;;;;;;;24.19;39.53;101710.03;4973374;28;20832;-76
2021/09/07 10:52:14;;;;;;;9.35;6.63;;;;;;;24.22;39.05;101705.13;5007980;28;20226;-75
2021/09/07 10:54:45;;;;;;;11.30;6.05;;;;;;;24.25;39.23;101703.13;5017381;28;20227;-75
2021/09/07 10:57:52;;;;;;;9.60;5.93;;;;;;;24.33;39.18;101695.03;5020125;28;20210;-76
2021/09/07 11:00:42;;;;;;;7.78;5.00;;;;;;;24.37;38.84;101696.41;5017238;28;20211;-76
2021/09/07 11:03:11;;;;;;;5.55;4.22;;;;;;;24.39;38.03;101697.94;5008097;28;20206;-75
2021/09/07 11:05:44;;;;;;;7.10;4.68;;;;;;;24.42;37.27;101694.06;5024576;28;20289;-76
2021/09/07 11:08:16;;;;;;;8.98;5.45;;;;;;;24.43;36.85;101690.31;5017382;28;20225;-76
2021/09/07 11:10:46;;;;;;;7.40;5.75;;;;;;;24.36;36.33;101694.72;5022263;28;20586;-75
2021/09/07 11:13:21;;;;;;;7.28;6.03;;;;;;;24.30;35.61;101690.75;5017815;28;20210;-75
2021/09/07 11:15:48;;;;;;;8.32;6.30;;;;;;;24.25;34.36;101692.25;5014733;28;20204;-75
2021/09/07 11:18:16;;;;;;;9.50;6.18;;;;;;;24.28;34.60;101697.38;5041239;22;20244;-75
2021/09/07 11:20:45;;;;;;;10.82;6.80;;;;;;;24.34;34.78;101691.31;5043585;28;20583;-75
2021/09/07 11:23:15;;;;;;;7.60;6.47;;;;;;;24.42;34.86;101688.59;5048134;28;20205;-76
2021/09/07 11:25:44;;;;;;;8.85;6.28;;;;;;;24.49;35.59;101690.53;5048098;28;20201;-75
2021/09/07 11:28:13;;;;;;;8.40;6.43;;;;;;;24.56;35.79;101688.00;5046900;28;20209;-76